Time;durP1;ratioP1;P1;durP2;ratioP2;P2;SDS_P1;SDS_P2;PMS_P1;PMS_P2;Temp;Humidity;BMP_temperature;BMP_pressure;BME280_temperature;BME280_humidity;BME280_pressure;Samples;Min_cycle;Max_cycle;Signal;HPM_P1;HPM_P2
2022/03/03 00:01:33;;;;;;;55.28;30.65;;;2.70;99.90;;;;;;5039036;28;20152;-62
2022/03/03 00:03:58;;;;;;;52.63;32.25;;;2.50;99.90;;;;;;5040213;28;20056;-62
2022/03/03 00:06:24;;;;;;;52.83;28.80;;;2.50;99.90;;;;;;5058260;28;20147;-62
2022/03/03 00:08:49;;;;;;;50.20;30.15;;;2.40;99.90;;;;;;5057702;28;20098;-62
2022/03/03 00:11:15;;;;;;;50.80;27.85;;;2.30;99.90;;;;;;5058248;28;20048;-62
2022/03/03 00:13:40;;;;;;;43.95;26.40;;;2.30;99.90;;;;;;5057108;28;20316;-62
2022/03/03 00:16:07;;;;;;;35.75;22.02;;;2.30;99.90;;;;;;5048895;28;20149;-62
2022/03/03 00:18:33;;;;;;;45.25;29.75;;;2.40;99.90;;;;;;5037348;28;20044;-61
2022/03/03 00:20:59;;;;;;;50.05;31.63;;;2.40;99.90;;;;;;5045671;28;20056;-61
2022/03/03 00:23:24;;;;;;;50.78;29.33;;;2.40;99.90;;;;;;5037861;28;21339;-61
2022/03/03 00:25:50;;;;;;;48.78;28.95;;;2.30;99.90;;;;;;5043908;28;20071;-62
2022/03/03 00:28:16;;;;;;;45.58;29.85;;;2.30;99.90;;;;;;5023360;28;20048;-61
2022/03/03 00:30:41;;;;;;;53.85;30.35;;;2.30;99.90;;;;;;5043815;28;20049;-61
2022/03/03 00:33:07;;;;;;;52.03;28.88;;;2.30;99.90;;;;;;5049343;28;20057;-62
2022/03/03 00:35:32;;;;;;;56.33;27.50;;;2.30;99.90;;;;;;5042302;28;20056;-61
2022/03/03 00:37:58;;;;;;;43.72;26.42;;;2.30;99.90;;;;;;5046450;28;20044;-61
2022/03/03 00:40:26;;;;;;;55.30;32.65;;;2.30;99.90;;;;;;5043782;28;20045;-61
2022/03/03 00:42:52;;;;;;;52.72;30.10;;;2.30;99.90;;;;;;5046422;28;20060;-61
2022/03/03 00:45:17;;;;;;;49.95;31.45;;;2.10;99.90;;;;;;5039933;28;20120;-61
2022/03/03 00:47:43;;;;;;;45.60;27.17;;;2.20;99.90;;;;;;5040689;28;20220;-61
2022/03/03 00:50:09;;;;;;;41.13;24.90;;;2.10;99.90;;;;;;5024631;28;20063;-62
2022/03/03 00:52:34;;;;;;;38.45;22.52;;;2.20;99.90;;;;;;5040256;28;20553;-61
2022/03/03 00:55:00;;;;;;;42.95;23.98;;;2.10;99.90;;;;;;5021312;28;20055;-61
2022/03/03 00:57:26;;;;;;;39.40;22.88;;;2.20;99.90;;;;;;5040413;28;20053;-61
2022/03/03 00:59:52;;;;;;;42.13;24.73;;;2.10;99.90;;;;;;5044086;28;20476;-62
2022/03/03 01:02:18;;;;;;;38.30;21.10;;;2.20;99.90;;;;;;5025103;28;20123;-61
2022/03/03 01:04:43;;;;;;;46.40;25.13;;;2.10;99.90;;;;;;5039901;28;20055;-61
2022/03/03 01:07:09;;;;;;;42.05;23.90;;;2.10;99.90;;;;;;5046224;28;20051;-61
2022/03/03 01:09:34;;;;;;;34.33;24.70;;;2.10;99.90;;;;;;5047107;28;20071;-62
2022/03/03 01:12:00;;;;;;;46.90;27.83;;;2.20;99.90;;;;;;5037050;28;20177;-62
2022/03/03 01:14:25;;;;;;;36.13;23.73;;;2.20;99.90;;;;;;5053703;28;20076;-61
2022/03/03 01:16:52;;;;;;;45.03;28.88;;;2.30;99.90;;;;;;5060266;28;20560;-61
2022/03/03 01:19:18;;;;;;;43.03;25.50;;;2.30;99.90;;;;;;5060830;28;20056;-61
2022/03/03 01:21:45;;;;;;;42.05;24.77;;;2.30;99.90;;;;;;5061227;28;20072;-61
2022/03/03 01:24:10;;;;;;;40.85;22.70;;;2.30;99.90;;;;;;5060792;28;20043;-62
2022/03/03 01:26:36;;;;;;;43.20;24.80;;;2.10;99.90;;;;;;5061109;28;20048;-62
2022/03/03 01:29:02;;;;;;;36.03;25.75;;;2.10;99.90;;;;;;5061249;28;20040;-62
2022/03/03 01:31:27;;;;;;;54.13;29.35;;;2.10;99.90;;;;;;5059733;28;20057;-61
2022/03/03 01:33:53;;;;;;;45.35;27.38;;;2.20;99.90;;;;;;5042789;28;20915;-62
2022/03/03 01:36:18;;;;;;;42.38;24.38;;;2.20;99.90;;;;;;5059820;28;20818;-62
2022/03/03 01:38:45;;;;;;;51.47;30.48;;;2.20;99.90;;;;;;5059767;28;20040;-61
2022/03/03 01:41:10;;;;;;;44.80;26.95;;;2.20;99.90;;;;;;5060989;28;20053;-62
2022/03/03 01:43:37;;;;;;;45.47;26.10;;;2.10;99.90;;;;;;5042625;28;20041;-61
2022/03/03 01:46:03;;;;;;;45.22;25.27;;;2.10;99.90;;;;;;5060386;28;20041;-62
2022/03/03 01:48:28;;;;;;;39.38;25.27;;;2.10;99.90;;;;;;5060860;28;20098;-62
2022/03/03 01:50:54;;;;;;;38.83;24.30;;;2.10;99.90;;;;;;5060677;28;20053;-61
2022/03/03 01:53:20;;;;;;;48.10;25.00;;;2.10;99.90;;;;;;5042411;28;20044;-61
2022/03/03 01:55:46;;;;;;;45.92;27.20;;;2.10;99.90;;;;;;5060577;28;20046;-62
2022/03/03 01:58:12;;;;;;;43.33;25.75;;;2.10;99.90;;;;;;5055320;28;20766;-61
2022/03/03 02:00:38;;;;;;;39.25;23.63;;;2.00;99.90;;;;;;5058367;28;20147;-61
2022/03/03 02:03:03;;;;;;;45.20;27.90;;;2.00;99.90;;;;;;5060543;28;20048;-61
2022/03/03 02:05:30;;;;;;;36.70;24.02;;;2.00;99.90;;;;;;5060695;28;20047;-61
2022/03/03 02:07:57;;;;;;;46.72;24.27;;;2.00;99.90;;;;;;5059884;28;20165;-61
2022/03/03 02:10:23;;;;;;;43.15;28.65;;;2.00;99.90;;;;;;5060623;28;20056;-61
2022/03/03 02:12:49;;;;;;;42.97;24.95;;;1.90;99.90;;;;;;5042230;28;20053;-61
2022/03/03 02:15:20;;;;;;;41.25;26.40;;;1.90;99.90;;;;;;5059584;28;20047;-61
2022/03/03 02:17:45;;;;;;;44.15;29.13;;;2.00;99.90;;;;;;5041662;28;20040;-61
2022/03/03 02:20:21;;;;;;;39.10;24.75;;;1.90;99.90;;;;;;5059855;28;20044;-61
2022/03/03 02:22:48;;;;;;;46.05;25.77;;;1.80;99.90;;;;;;5037827;28;20053;-61
2022/03/03 02:25:14;;;;;;;35.03;23.52;;;1.70;99.90;;;;;;5038867;28;20041;-61
2022/03/03 02:27:41;;;;;;;44.38;23.58;;;1.70;99.90;;;;;;5039531;28;20082;-61
2022/03/03 02:30:07;;;;;;;43.15;25.77;;;1.70;99.90;;;;;;5021525;28;20060;-60
2022/03/03 02:32:33;;;;;;;42.20;26.02;;;1.70;99.90;;;;;;5040812;28;20958;-61
2022/03/03 02:34:58;;;;;;;40.67;23.67;;;1.70;99.90;;;;;;5059577;28;20121;-61
2022/03/03 02:37:24;;;;;;;43.38;25.77;;;1.60;99.90;;;;;;5059779;28;20605;-61
2022/03/03 02:39:49;;;;;;;45.05;27.42;;;1.60;99.90;;;;;;5059950;28;20102;-61
2022/03/03 02:42:15;;;;;;;48.60;27.42;;;1.60;99.90;;;;;;5059191;28;20048;-60
2022/03/03 02:44:41;;;;;;;52.80;30.05;;;1.60;99.90;;;;;;5042174;28;20049;-60
2022/03/03 02:47:06;;;;;;;41.80;23.45;;;1.50;99.90;;;;;;5059650;28;20106;-61
2022/03/03 02:49:32;;;;;;;45.72;28.92;;;1.50;99.90;;;;;;5041224;28;20052;-60
2022/03/03 02:51:58;;;;;;;48.55;24.02;;;1.50;99.90;;;;;;5041435;28;20828;-60
2022/03/03 02:54:24;;;;;;;37.17;24.92;;;1.50;99.90;;;;;;5059724;28;20039;-60
2022/03/03 02:59:34;;;;;;;35.17;22.38;;;1.50;99.90;;;;;;5059322;28;20126;-60
2022/03/03 03:01:59;;;;;;;42.30;26.17;;;1.50;99.90;;;;;;5059289;28;20040;-60
2022/03/03 03:04:25;;;;;;;47.55;26.60;;;1.50;99.90;;;;;;5041009;28;20048;-60
2022/03/03 03:06:50;;;;;;;43.10;25.58;;;1.40;99.90;;;;;;5058934;28;20045;-60
2022/03/03 03:09:16;;;;;;;45.78;27.77;;;1.40;99.90;;;;;;5058993;28;20050;-60
2022/03/03 03:11:41;;;;;;;44.00;28.08;;;1.30;99.90;;;;;;5040614;28;20171;-60
2022/03/03 03:14:07;;;;;;;43.40;25.77;;;1.40;99.90;;;;;;5059429;28;20044;-60
2022/03/03 03:16:32;;;;;;;47.30;26.90;;;1.30;99.90;;;;;;5040970;28;20132;-60
2022/03/03 03:18:58;;;;;;;41.88;27.48;;;1.30;99.90;;;;;;5059154;28;20841;-60
2022/03/03 03:21:23;;;;;;;44.90;27.38;;;1.20;99.90;;;;;;5059130;28;20040;-61
2022/03/03 03:23:49;;;;;;;45.33;27.13;;;1.00;99.90;;;;;;5058019;28;20781;-60
2022/03/03 03:26:14;;;;;;;45.30;28.23;;;0.90;99.90;;;;;;5058923;28;20044;-60
2022/03/03 03:28:40;;;;;;;45.40;29.40;;;0.90;99.90;;;;;;5058964;28;20055;-60
2022/03/03 03:31:06;;;;;;;45.70;27.25;;;0.90;99.90;;;;;;5058541;28;20118;-60
2022/03/03 03:33:31;;;;;;;42.08;26.48;;;0.90;99.90;;;;;;5059356;28;20062;-60
2022/03/03 03:35:57;;;;;;;45.65;30.70;;;0.90;99.90;;;;;;5058634;28;20048;-60
2022/03/03 03:38:22;;;;;;;47.22;28.33;;;0.90;99.90;;;;;;5040819;28;20135;-60
2022/03/03 03:40:48;;;;;;;44.95;28.33;;;0.90;99.90;;;;;;5058570;28;20048;-60
2022/03/03 03:43:13;;;;;;;45.40;27.40;;;0.90;99.90;;;;;;5058618;28;20075;-60
2022/03/03 03:45:39;;;;;;;47.35;26.27;;;0.90;99.90;;;;;;5040335;28;20099;-60
2022/03/03 03:48:05;;;;;;;41.50;25.35;;;0.80;99.90;;;;;;5059007;28;20095;-60
2022/03/03 03:50:30;;;;;;;50.65;31.33;;;0.90;99.90;;;;;;5058988;28;20067;-60
2022/03/03 03:52:56;;;;;;;49.08;27.42;;;0.80;99.90;;;;;;5040559;28;20044;-60
2022/03/03 03:55:21;;;;;;;43.50;25.48;;;0.80;99.90;;;;;;5058741;28;20132;-60
2022/03/03 03:57:47;;;;;;;38.65;24.60;;;0.80;99.90;;;;;;5050790;28;20492;-60
2022/03/03 04:00:14;;;;;;;47.13;26.63;;;0.90;99.90;;;;;;5035134;28;20052;-60
2022/03/03 04:02:44;;;;;;;46.72;28.83;;;0.90;99.90;;;;;;5055909;28;20075;-60
2022/03/03 04:05:10;;;;;;;42.83;24.58;;;0.90;99.90;;;;;;5058274;28;20903;-60
2022/03/03 04:07:35;;;;;;;41.35;24.92;;;1.00;99.90;;;;;;5057503;28;20052;-60
2022/03/03 04:10:02;;;;;;;34.85;21.48;;;1.00;99.90;;;;;;5056033;28;20056;-59
2022/03/03 04:12:27;;;;;;;47.50;27.23;;;1.00;99.90;;;;;;5057541;28;20865;-59
2022/03/03 04:14:53;;;;;;;43.20;25.27;;;1.10;99.90;;;;;;5057167;28;20040;-59
2022/03/03 04:17:19;;;;;;;45.83;25.92;;;1.10;99.90;;;;;;5040209;28;20760;-59
2022/03/03 04:19:45;;;;;;;43.72;24.73;;;1.10;99.90;;;;;;5057470;28;20052;-59
2022/03/03 04:22:10;;;;;;;45.60;26.88;;;1.00;99.90;;;;;;5057214;28;20159;-59
2022/03/03 04:24:36;;;;;;;46.67;25.80;;;0.90;99.90;;;;;;5057927;28;20048;-60
2022/03/03 04:27:04;;;;;;;43.10;25.52;;;0.90;99.90;;;;;;5057270;28;20048;-60
2022/03/03 04:29:29;;;;;;;39.28;24.70;;;0.80;99.90;;;;;;5040037;28;20075;-60
2022/03/03 04:31:57;;;;;;;42.10;25.65;;;0.80;99.90;;;;;;5058518;28;20056;-60
2022/03/03 04:34:23;;;;;;;43.20;26.98;;;0.80;99.90;;;;;;5058503;28;20049;-60
2022/03/03 04:36:49;;;;;;;44.33;26.48;;;0.70;99.90;;;;;;5058195;28;20055;-61
2022/03/03 04:39:15;;;;;;;41.95;26.50;;;0.80;99.90;;;;;;5057566;28;20397;-61
2022/03/03 04:41:43;;;;;;;40.67;23.90;;;0.70;99.90;;;;;;5057131;28;20052;-60
2022/03/03 04:44:09;;;;;;;43.10;24.13;;;0.70;99.90;;;;;;5039736;28;20044;-60
2022/03/03 04:46:35;;;;;;;39.30;23.83;;;0.60;99.90;;;;;;5058113;28;20048;-60
2022/03/03 04:49:02;;;;;;;39.22;24.70;;;0.70;99.90;;;;;;5061699;28;20808;-60
2022/03/03 04:51:28;;;;;;;36.83;22.23;;;0.70;99.90;;;;;;5061593;28;20045;-61
2022/03/03 04:53:54;;;;;;;40.63;23.98;;;0.70;99.90;;;;;;5061350;28;20883;-60
2022/03/03 04:56:19;;;;;;;41.05;22.27;;;0.70;99.90;;;;;;5061135;28;20048;-60
2022/03/03 04:58:45;;;;;;;35.70;22.05;;;0.70;99.90;;;;;;5061127;28;20683;-60
2022/03/03 05:01:11;;;;;;;41.50;23.58;;;0.70;99.90;;;;;;5061500;28;20127;-60
2022/03/03 05:03:37;;;;;;;39.63;23.90;;;0.70;99.90;;;;;;5060724;28;20059;-60
2022/03/03 05:06:03;;;;;;;39.60;22.27;;;0.80;99.90;;;;;;5061192;28;20040;-60
2022/03/03 05:08:29;;;;;;;34.58;21.13;;;0.70;99.90;;;;;;5061219;28;20044;-60
2022/03/03 05:10:55;;;;;;;36.28;21.75;;;0.70;99.90;;;;;;5060278;28;20157;-60
2022/03/03 05:13:20;;;;;;;33.83;22.00;;;0.90;99.90;;;;;;5040430;28;20502;-60
2022/03/03 05:15:46;;;;;;;33.95;20.20;;;0.70;99.90;;;;;;5024305;28;20612;-60
2022/03/03 05:18:12;;;;;;;36.08;21.38;;;0.60;99.90;;;;;;5047528;28;20079;-60
2022/03/03 05:20:38;;;;;;;34.28;20.77;;;0.70;99.90;;;;;;5043502;28;20052;-60
2022/03/03 05:23:04;;;;;;;31.38;18.48;;;0.70;99.90;;;;;;5039802;28;20579;-60
2022/03/03 05:25:30;;;;;;;28.15;19.90;;;0.70;99.90;;;;;;5040874;28;20128;-60
2022/03/03 05:27:58;;;;;;;30.67;18.63;;;0.70;99.90;;;;;;5041165;28;20076;-60
2022/03/03 05:30:23;;;;;;;26.67;17.40;;;0.70;99.90;;;;;;5022933;28;20051;-60
2022/03/03 05:32:49;;;;;;;30.88;19.10;;;0.80;99.90;;;;;;5023648;28;20057;-60
2022/03/03 05:35:15;;;;;;;30.40;20.13;;;0.70;99.90;;;;;;5023639;28;20048;-60
2022/03/03 05:37:43;;;;;;;32.22;20.58;;;0.70;99.90;;;;;;5022899;28;20052;-60
2022/03/03 05:40:09;;;;;;;37.15;21.65;;;0.70;99.90;;;;;;5040964;28;20421;-60
2022/03/03 05:42:36;;;;;;;35.03;21.02;;;0.70;99.90;;;;;;5040166;28;20049;-60
2022/03/03 05:45:02;;;;;;;34.47;21.00;;;0.70;99.90;;;;;;5040377;28;20068;-60
2022/03/03 05:47:29;;;;;;;38.08;20.70;;;0.70;99.90;;;;;;5040539;28;20041;-60
2022/03/03 05:49:55;;;;;;;39.33;20.08;;;0.70;99.90;;;;;;5047485;28;20045;-60
2022/03/03 05:52:21;;;;;;;37.58;22.27;;;0.70;99.90;;;;;;5049308;28;20103;-60
2022/03/03 05:54:47;;;;;;;40.58;21.88;;;0.70;99.90;;;;;;5045900;28;20048;-60
2022/03/03 05:57:20;;;;;;;44.40;23.45;;;0.70;99.90;;;;;;5024613;28;20929;-59
2022/03/03 05:59:51;;;;;;;38.00;23.30;;;0.70;99.90;;;;;;5053600;28;20131;-59
2022/03/03 06:02:18;;;;;;;41.33;22.60;;;0.70;99.90;;;;;;5019700;28;20068;-59
2022/03/03 06:04:45;;;;;;;32.35;19.08;;;0.60;99.90;;;;;;5040112;28;20052;-59
2022/03/03 06:07:14;;;;;;;36.47;21.70;;;0.70;99.90;;;;;;5046646;28;20051;-59
2022/03/03 06:09:41;;;;;;;37.78;21.70;;;0.60;99.90;;;;;;5043389;28;20044;-59
2022/03/03 06:12:20;;;;;;;32.03;21.27;;;0.60;99.90;;;;;;5043286;28;20049;-59
2022/03/03 06:14:54;;;;;;;35.95;22.13;;;0.60;99.90;;;;;;5031405;28;20076;-59
2022/03/03 06:17:23;;;;;;;32.60;22.13;;;0.60;99.90;;;;;;5020539;28;20102;-59
2022/03/03 06:19:51;;;;;;;36.10;23.67;;;0.60;99.90;;;;;;5040503;28;20976;-59
2022/03/03 06:22:18;;;;;;;47.30;27.75;;;0.50;99.90;;;;;;5022742;28;20040;-59
2022/03/03 06:24:43;;;;;;;35.45;24.40;;;0.50;99.90;;;;;;5040103;28;20107;-60
2022/03/03 06:27:09;;;;;;;34.25;22.95;;;0.40;99.90;;;;;;5039515;28;20120;-59
2022/03/03 06:29:36;;;;;;;31.60;22.50;;;0.40;99.90;;;;;;5039614;28;20143;-59
2022/03/03 06:32:02;;;;;;;38.42;23.10;;;0.50;99.90;;;;;;5027753;28;20504;-59
2022/03/03 06:34:28;;;;;;;42.08;24.63;;;0.50;99.90;;;;;;5042521;28;20044;-59
2022/03/03 06:36:54;;;;;;;40.92;23.73;;;0.50;99.90;;;;;;5047301;28;20044;-59
2022/03/03 06:39:20;;;;;;;35.00;20.80;;;0.50;99.90;;;;;;5051389;28;20531;-59
2022/03/03 06:41:45;;;;;;;41.53;25.35;;;0.50;99.90;;;;;;5047635;28;20040;-59
2022/03/03 06:44:12;;;;;;;37.80;23.75;;;0.60;99.90;;;;;;5024799;28;20051;-59
2022/03/03 06:46:38;;;;;;;39.92;24.27;;;0.60;99.90;;;;;;5042205;28;20567;-59
2022/03/03 06:49:03;;;;;;;35.88;23.77;;;0.60;99.90;;;;;;5047015;28;20143;-59
2022/03/03 06:51:37;;;;;;;42.78;26.50;;;0.70;99.90;;;;;;5043183;28;20045;-59
2022/03/03 06:54:05;;;;;;;39.35;23.95;;;0.70;99.90;;;;;;5050668;28;20142;-59
2022/03/03 06:56:32;;;;;;;39.50;24.05;;;0.70;99.90;;;;;;5033990;28;20866;-59
2022/03/03 06:59:00;;;;;;;38.38;22.65;;;0.70;99.90;;;;;;5015626;28;20129;-59
2022/03/03 07:01:28;;;;;;;46.45;25.58;;;0.70;99.90;;;;;;5055246;28;20109;-60
2022/03/03 07:03:56;;;;;;;40.42;24.20;;;0.70;99.90;;;;;;5054813;28;20074;-59
2022/03/03 07:06:22;;;;;;;38.42;25.90;;;0.70;99.90;;;;;;5056261;28;20048;-60
2022/03/03 07:08:53;;;;;;;36.90;23.70;;;0.70;99.90;;;;;;5055720;28;20051;-61
2022/03/03 07:11:19;;;;;;;31.45;23.15;;;0.80;99.90;;;;;;5055434;28;20051;-59
2022/03/03 07:13:46;;;;;;;30.67;22.40;;;0.70;99.90;;;;;;5056038;28;20059;-58
2022/03/03 07:16:40;;;;;;;30.30;19.75;;;1.10;99.90;;;;;;5055250;28;20217;-59
2022/03/03 07:19:20;;;;;;;42.85;26.20;;;0.90;99.90;;;;;;5056378;28;20097;-59
2022/03/03 07:22:03;;;;;;;40.90;24.25;;;1.00;99.90;;;;;;5056083;28;20496;-59
2022/03/03 07:24:43;;;;;;;37.08;23.15;;;1.00;99.90;;;;;;5055491;28;20045;-59
2022/03/03 07:27:24;;;;;;;43.75;27.65;;;1.00;99.90;;;;;;5051845;28;20492;-60
2022/03/03 07:30:07;;;;;;;37.25;23.95;;;1.10;99.90;;;;;;5034015;28;20044;-60
2022/03/03 07:32:34;;;;;;;41.25;24.65;;;1.20;99.90;;;;;;5016131;28;20059;-60
2022/03/03 07:35:12;;;;;;;46.25;26.30;;;1.20;99.90;;;;;;5033630;28;20131;-60
2022/03/03 07:37:50;;;;;;;46.03;26.10;;;1.30;99.90;;;;;;5034265;28;20044;-60
2022/03/03 07:40:16;;;;;;;35.88;24.90;;;1.40;99.90;;;;;;5034978;28;20048;-60
2022/03/03 07:42:42;;;;;;;40.75;24.02;;;1.50;99.90;;;;;;5034350;28;20669;-61
2022/03/03 07:45:08;;;;;;;40.97;24.83;;;1.60;99.90;;;;;;5043249;28;20804;-61
2022/03/03 07:47:38;;;;;;;50.80;25.83;;;1.70;99.90;;;;;;5038644;28;20037;-61
2022/03/03 07:50:05;;;;;;;48.30;26.35;;;1.70;99.90;;;;;;5036120;28;20041;-61
2022/03/03 07:52:31;;;;;;;38.42;25.42;;;1.80;99.90;;;;;;5039597;28;20105;-61
2022/03/03 07:54:57;;;;;;;42.88;27.52;;;1.90;99.90;;;;;;5038333;28;20048;-60
2022/03/03 07:57:25;;;;;;;38.45;24.23;;;1.90;99.90;;;;;;5050303;28;20419;-59
2022/03/03 08:00:01;;;;;;;47.83;28.40;;;1.90;99.90;;;;;;5042744;28;20044;-60
2022/03/03 08:02:31;;;;;;;45.15;27.92;;;1.90;99.90;;;;;;5038510;28;20097;-60
2022/03/03 08:05:01;;;;;;;42.30;24.63;;;1.90;99.90;;;;;;5039010;28;20127;-60
2022/03/03 08:07:27;;;;;;;49.38;26.10;;;2.00;99.90;;;;;;5042755;28;20049;-59
2022/03/03 08:09:58;;;;;;;47.90;27.00;;;2.10;99.90;;;;;;5038477;28;20049;-59
2022/03/03 08:12:25;;;;;;;45.20;24.92;;;2.20;99.90;;;;;;5017045;28;20067;-60
2022/03/03 08:14:51;;;;;;;42.10;25.10;;;2.40;99.90;;;;;;5053058;28;20047;-59
2022/03/03 08:17:18;;;;;;;37.67;21.90;;;2.50;99.90;;;;;;5036803;28;20051;-59
2022/03/03 08:19:44;;;;;;;42.75;25.48;;;2.70;99.90;;;;;;5054449;28;20052;-60
2022/03/03 08:22:13;;;;;;;41.13;25.73;;;2.70;99.90;;;;;;5054560;28;20117;-60
2022/03/03 08:24:43;;;;;;;45.55;25.98;;;2.80;99.90;;;;;;5035451;28;20131;-59
2022/03/03 08:27:11;;;;;;;45.55;24.85;;;2.90;99.90;;;;;;5053957;28;20404;-59
2022/03/03 08:29:37;;;;;;;40.45;24.52;;;3.00;99.90;;;;;;5053928;28;20054;-60
2022/03/03 08:32:08;;;;;;;41.22;24.15;;;3.20;99.90;;;;;;5037238;28;20088;-61
2022/03/03 08:34:52;;;;;;;40.30;26.30;;;3.30;99.90;;;;;;5038259;28;20049;-61
2022/03/03 08:37:28;;;;;;;38.55;24.52;;;3.40;99.90;;;;;;5042283;28;20055;-60
2022/03/03 08:39:57;;;;;;;42.10;23.88;;;3.50;99.90;;;;;;5033574;28;20378;-61
2022/03/03 08:42:26;;;;;;;39.20;24.85;;;3.60;99.90;;;;;;5043991;28;20080;-60
2022/03/03 08:44:53;;;;;;;40.35;21.40;;;3.80;99.90;;;;;;5037391;28;20057;-61
2022/03/03 08:47:21;;;;;;;39.75;23.13;;;3.90;99.90;;;;;;5034318;28;20160;-59
2022/03/03 08:49:56;;;;;;;41.55;24.70;;;4.10;99.90;;;;;;5041373;28;20040;-59
2022/03/03 08:52:21;;;;;;;39.08;23.40;;;4.20;99.90;;;;;;5026114;28;20051;-59
2022/03/03 08:54:47;;;;;;;36.35;21.90;;;4.30;99.90;;;;;;5037548;28;20036;-59
2022/03/03 08:57:12;;;;;;;35.08;21.70;;;4.40;99.90;;;;;;5022284;28;20108;-59
2022/03/03 08:59:38;;;;;;;32.95;23.35;;;4.60;99.90;;;;;;5037322;28;20679;-60
2022/03/03 09:02:04;;;;;;;33.42;24.52;;;4.70;99.90;;;;;;5041249;28;20044;-60
2022/03/03 09:04:29;;;;;;;37.17;22.00;;;4.90;99.90;;;;;;5026900;28;20053;-61
2022/03/03 09:06:55;;;;;;;29.58;20.45;;;5.00;99.90;;;;;;5044014;28;20040;-60
2022/03/03 09:09:21;;;;;;;35.78;23.77;;;5.10;99.90;;;;;;5037188;28;20620;-61
2022/03/03 09:11:46;;;;;;;35.53;21.67;;;5.20;99.90;;;;;;5043339;28;20091;-61
2022/03/03 09:14:12;;;;;;;36.40;22.85;;;5.30;99.90;;;;;;5031176;28;20076;-61
2022/03/03 09:16:38;;;;;;;33.30;19.00;;;5.50;99.90;;;;;;5038928;28;20440;-61
2022/03/03 09:19:04;;;;;;;33.88;21.15;;;5.70;99.90;;;;;;5047651;28;20040;-61
2022/03/03 09:21:30;;;;;;;29.85;19.60;;;5.70;99.90;;;;;;5044842;28;20653;-62
2022/03/03 09:23:55;;;;;;;28.88;18.38;;;6.00;99.90;;;;;;5043488;28;20040;-62
2022/03/03 09:26:21;;;;;;;35.33;21.55;;;6.20;99.90;;;;;;5044131;28;20048;-62
2022/03/03 09:28:46;;;;;;;29.08;20.75;;;6.40;99.90;;;;;;5051276;28;20032;-62
2022/03/03 09:31:12;;;;;;;30.77;17.58;;;6.60;99.90;;;;;;5038421;28;20067;-62
2022/03/03 09:33:41;;;;;;;34.03;20.40;;;6.90;99.90;;;;;;5058123;28;20804;-62
2022/03/03 09:36:06;;;;;;;31.60;19.92;;;7.10;99.90;;;;;;5050217;28;20040;-62
2022/03/03 09:38:32;;;;;;;30.23;21.15;;;7.40;99.90;;;;;;5040099;28;20084;-62
2022/03/03 09:40:58;;;;;;;26.92;18.73;;;8.10;99.90;;;;;;5040008;28;20576;-61
2022/03/03 09:43:25;;;;;;;28.48;19.50;;;9.00;99.90;;;;;;5020659;28;20424;-62
2022/03/03 09:45:51;;;;;;;30.33;19.95;;;10.10;99.90;;;;;;5040331;28;20051;-62
2022/03/03 09:48:17;;;;;;;30.30;20.13;;;11.20;99.90;;;;;;5040257;28;20041;-62
2022/03/03 09:50:42;;;;;;;26.55;18.00;;;11.90;98.20;;;;;;5039381;28;20138;-62
2022/03/03 09:53:10;;;;;;;29.75;19.20;;;12.50;96.70;;;;;;5039719;28;20089;-62
2022/03/03 09:55:38;;;;;;;29.23;19.10;;;13.30;95.80;;;;;;5041652;28;20040;-62
2022/03/03 09:58:06;;;;;;;29.23;19.70;;;13.60;94.10;;;;;;5022856;28;20126;-62
2022/03/03 10:00:37;;;;;;;26.55;18.80;;;14.30;94.00;;;;;;5038657;28;20057;-62
2022/03/03 10:03:14;;;;;;;24.27;17.90;;;15.20;93.80;;;;;;5031679;28;20057;-62
2022/03/03 10:05:51;;;;;;;24.23;19.60;;;15.90;91.80;;;;;;5042283;28;20048;-62
2022/03/03 10:08:22;;;;;;;23.50;17.60;;;16.60;91.60;;;;;;4689206;28;9999911;-62
2022/03/03 10:11:01;;;;;;;23.48;17.30;;;16.30;87.80;;;;;;5053824;28;20048;-61
2022/03/03 10:13:43;;;;;;;30.33;19.85;;;16.60;82.10;;;;;;5055937;28;20040;-62
2022/03/03 10:16:09;;;;;;;26.50;19.75;;;16.80;89.80;;;;;;5055925;28;20151;-62
2022/03/03 10:18:34;;;;;;;23.00;18.13;;;17.00;88.60;;;;;;5052419;28;20036;-63
2022/03/03 10:21:02;;;;;;;26.13;17.40;;;17.10;87.90;;;;;;5037290;28;20086;-62
2022/03/03 10:23:34;;;;;;;23.13;17.00;;;17.30;84.50;;;;;;5027148;28;20102;-62
2022/03/03 10:26:02;;;;;;;27.15;19.27;;;17.30;76.30;;;;;;5017726;28;20115;-62
2022/03/03 10:28:30;;;;;;;23.60;16.88;;;17.10;80.20;;;;;;5031161;28;20055;-61
2022/03/03 10:30:57;;;;;;;24.70;19.42;;;17.40;75.30;;;;;;5016009;28;20049;-61
2022/03/03 10:33:25;;;;;;;22.67;16.30;;;17.00;76.80;;;;;;5043485;28;20136;-61
2022/03/03 10:36:01;;;;;;;25.60;17.17;;;17.40;75.50;;;;;;5045598;28;20492;-61
2022/03/03 10:38:27;;;;;;;21.33;16.40;;;17.40;68.80;;;;;;5036955;28;20056;-61
2022/03/03 10:40:53;;;;;;;21.23;16.15;;;17.70;69.50;;;;;;5054749;28;20543;-61
2022/03/03 10:43:18;;;;;;;25.95;18.10;;;17.50;68.10;;;;;;5037855;28;20140;-61
2022/03/03 10:46:01;;;;;;;20.90;16.30;;;17.70;68.80;;;;;;5018743;28;20049;-61
2022/03/03 10:48:30;;;;;;;23.88;17.55;;;17.50;61.10;;;;;;5038480;28;20071;-61
2022/03/03 10:50:58;;;;;;;18.92;15.18;;;17.30;65.70;;;;;;5038388;28;20935;-61
2022/03/03 10:53:24;;;;;;;21.40;13.77;;;16.70;64.60;;;;;;5037765;28;20579;-61
2022/03/03 10:56:06;;;;;;;18.83;16.40;;;15.70;65.40;;;;;;5019481;28;20055;-61
2022/03/03 10:58:55;;;;;;;25.50;17.55;;;14.40;69.80;;;;;;5039184;28;20075;-61
2022/03/03 11:01:23;;;;;;;21.83;14.68;;;12.40;72.60;;;;;;5038520;28;20057;-61
2022/03/03 11:03:50;;;;;;;22.05;15.20;;;11.70;78.60;;;;;;5021074;28;20114;-61
2022/03/03 11:06:24;;;;;;;21.33;14.18;;;11.00;82.10;;;;;;5039054;28;20702;-61
2022/03/03 11:08:53;;;;;;;21.83;16.27;;;10.60;83.20;;;;;;5056861;28;20045;-61
2022/03/03 11:11:20;;;;;;;22.45;14.80;;;10.20;83.80;;;;;;5040765;28;20044;-61
2022/03/03 11:13:48;;;;;;;23.65;16.15;;;10.10;85.80;;;;;;5058732;28;20037;-61
2022/03/03 11:16:18;;;;;;;21.35;15.27;;;10.00;87.80;;;;;;5057666;28;20040;-61
2022/03/03 11:18:45;;;;;;;18.75;13.55;;;9.80;89.80;;;;;;5058100;28;20052;-61
2022/03/03 11:21:12;;;;;;;24.23;16.70;;;9.80;89.90;;;;;;5058965;28;20101;-61
2022/03/03 11:23:54;;;;;;;23.35;15.18;;;9.60;90.70;;;;;;5039814;28;20516;-61
2022/03/03 11:26:27;;;;;;;20.13;13.85;;;9.60;89.70;;;;;;5058498;28;20054;-60
2022/03/03 11:29:16;;;;;;;17.83;12.45;;;9.50;88.70;;;;;;5039669;28;20131;-61
2022/03/03 11:31:43;;;;;;;18.05;13.40;;;9.20;90.10;;;;;;5057808;28;20479;-60
2022/03/03 11:34:43;;;;;;;17.02;13.15;;;9.20;90.50;;;;;;5058169;28;20055;-60
2022/03/03 11:37:19;;;;;;;20.25;14.88;;;9.20;90.80;;;;;;5057345;28;20052;-60
2022/03/03 11:40:03;;;;;;;21.45;15.02;;;9.20;91.00;;;;;;5039899;28;20470;-60
2022/03/03 11:42:37;;;;;;;21.52;14.63;;;9.10;91.40;;;;;;5055365;28;20126;-62
2022/03/03 11:45:08;;;;;;;20.63;14.27;;;9.20;92.00;;;;;;5054197;28;20096;-62
2022/03/03 11:47:36;;;;;;;23.40;13.85;;;9.10;92.10;;;;;;5039564;28;20079;-62
2022/03/03 11:50:17;;;;;;;20.52;13.25;;;9.30;91.90;;;;;;5057346;28;20052;-60
2022/03/03 11:52:44;;;;;;;19.88;13.30;;;9.30;91.50;;;;;;5048722;28;20079;-61
2022/03/03 11:55:33;;;;;;;16.35;10.50;;;9.40;91.50;;;;;;5058157;28;20857;-61
2022/03/03 11:58:03;;;;;;;22.30;14.65;;;9.50;91.10;;;;;;5057522;28;20052;-61
2022/03/03 12:00:53;;;;;;;19.33;13.75;;;9.40;90.60;;;;;;5056994;28;20415;-61
2022/03/03 12:03:22;;;;;;;19.73;14.20;;;9.50;90.90;;;;;;5043125;28;20099;-61
2022/03/03 12:05:49;;;;;;;27.02;14.02;;;9.50;91.70;;;;;;5057055;28;20093;-60
2022/03/03 12:08:14;;;;;;;20.17;14.93;;;9.60;91.70;;;;;;5057395;28;20056;-61
2022/03/03 12:11:05;;;;;;;18.42;12.57;;;9.60;91.40;;;;;;5056661;28;20048;-61
2022/03/03 12:13:40;;;;;;;19.67;13.93;;;9.60;91.50;;;;;;5056880;28;20051;-61
2022/03/03 12:16:26;;;;;;;15.85;11.07;;;9.60;91.10;;;;;;5038641;28;20110;-61
2022/03/03 12:18:54;;;;;;;14.05;9.13;;;9.60;90.00;;;;;;5057001;28;20499;-61
2022/03/03 12:21:40;;;;;;;14.65;11.00;;;9.60;87.30;;;;;;5056559;28;20052;-60
2022/03/03 12:24:17;;;;;;;20.15;12.63;;;9.60;87.30;;;;;;5057574;28;20040;-61
2022/03/03 12:26:55;;;;;;;19.75;12.88;;;9.50;87.30;;;;;;5057113;28;20056;-60
2022/03/03 12:29:39;;;;;;;21.15;14.00;;;9.60;89.20;;;;;;5056953;28;20040;-61
2022/03/03 12:32:29;;;;;;;20.95;12.10;;;9.50;89.50;;;;;;5055486;28;20056;-61
2022/03/03 12:34:58;;;;;;;22.27;13.88;;;9.60;90.80;;;;;;5056156;28;20053;-61
2022/03/03 12:37:23;;;;;;;18.33;12.45;;;9.60;90.30;;;;;;5056039;28;20137;-61
2022/03/03 12:39:55;;;;;;;18.20;11.30;;;9.70;90.40;;;;;;5037404;28;20135;-61
2022/03/03 12:42:23;;;;;;;15.05;11.60;;;9.70;90.10;;;;;;5056077;28;20128;-60
2022/03/03 12:44:53;;;;;;;14.65;10.30;;;9.70;90.30;;;;;;5056631;28;20155;-60